Time;durP1;ratioP1;P1;durP2;ratioP2;P2;SDS_P1;SDS_P2;PMS_P1;PMS_P2;Temp;Humidity;BMP_temperature;BMP_pressure;BME280_temperature;BME280_humidity;BME280_pressure;Samples;Min_cycle;Max_cycle;Signal;HPM_P1;HPM_P2
2023/10/29 00:01:03;;;;;;;1.92;0.85;;;;;;;13.19;100.00;98903.97;4993465;28;20045;-86
2023/10/29 00:03:28;;;;;;;2.22;0.90;;;;;;;13.32;100.00;98897.84;4968058;28;20046;-86
2023/10/29 00:05:54;;;;;;;1.50;0.85;;;;;;;13.28;100.00;98904.75;4974162;28;20039;-86
2023/10/29 00:08:19;;;;;;;6.28;1.00;;;;;;;13.33;100.00;98911.44;4974042;28;20034;-86
2023/10/29 00:10:46;;;;;;;3.88;1.13;;;;;;;13.37;100.00;98900.91;4992064;28;20042;-86
2023/10/29 00:13:11;;;;;;;1.63;1.02;;;;;;;13.42;100.00;98907.53;4976385;28;20029;-86
2023/10/29 00:15:37;;;;;;;2.88;0.93;;;;;;;13.47;100.00;98895.13;4972917;28;20039;-87
2023/10/29 00:18:05;;;;;;;3.97;1.48;;;;;;;13.41;100.00;98894.84;4975904;28;20048;-87
2023/10/29 00:20:30;;;;;;;2.75;1.02;;;;;;;13.47;100.00;98884.16;4994307;28;20492;-87
2023/10/29 00:22:56;;;;;;;3.45;0.88;;;;;;;13.53;100.00;98881.50;4970596;28;20049;-87
2023/10/29 00:25:22;;;;;;;3.08;0.77;;;;;;;13.55;100.00;98884.88;4993548;28;20100;-87
2023/10/29 00:27:47;;;;;;;2.60;1.10;;;;;;;13.48;100.00;98872.97;4959477;28;20085;-86
2023/10/29 00:30:13;;;;;;;2.70;1.00;;;;;;;13.49;100.00;98876.56;4977196;28;20492;-87
2023/10/29 00:32:38;;;;;;;5.97;1.25;;;;;;;13.55;100.00;98859.31;4966389;28;20050;-87
2023/10/29 00:35:04;;;;;;;2.38;0.70;;;;;;;13.65;100.00;98848.84;4960079;28;20031;-86
2023/10/29 00:37:29;;;;;;;2.70;1.25;;;;;;;13.62;100.00;98846.47;4944793;28;20058;-87
2023/10/29 00:39:55;;;;;;;2.88;0.75;;;;;;;13.67;100.00;98808.25;4980993;28;20018;-87
2023/10/29 00:42:20;;;;;;;3.35;1.05;;;;;;;13.70;100.00;98799.63;4958912;28;20382;-87
2023/10/29 00:44:47;;;;;;;3.72;0.77;;;;;;;13.84;100.00;98786.91;4983809;28;20190;-87
2023/10/29 00:47:12;;;;;;;3.88;0.90;;;;;;;13.79;100.00;98798.47;4960067;28;20401;-87
2023/10/29 00:49:38;;;;;;;4.10;1.02;;;;;;;13.79;100.00;98781.13;4961626;28;20030;-87
2023/10/29 00:52:04;;;;;;;3.25;0.68;;;;;;;13.77;100.00;98764.81;4960097;28;20076;-87
2023/10/29 00:54:30;;;;;;;6.55;1.08;;;;;;;13.85;100.00;98766.59;4962481;28;20043;-88
2023/10/29 00:56:56;;;;;;;6.55;0.82;;;;;;;13.92;100.00;98769.41;4952619;28;20398;-87
2023/10/29 00:59:22;;;;;;;3.53;0.88;;;;;;;13.94;100.00;98778.34;4965564;28;20498;-88
2023/10/29 01:01:49;;;;;;;8.00;1.45;;;;;;;13.99;100.00;98762.09;4974427;28;20038;-86
2023/10/29 01:04:15;;;;;;;1.27;0.60;;;;;;;14.06;100.00;98764.91;4965965;28;20023;-87
2023/10/29 01:06:42;;;;;;;4.20;0.70;;;;;;;14.01;100.00;98768.25;4974941;28;20516;-87
2023/10/29 01:09:08;;;;;;;1.33;0.70;;;;;;;14.16;100.00;98776.44;4948945;28;20026;-87
2023/10/29 01:11:34;;;;;;;2.75;0.60;;;;;;;14.12;100.00;98777.91;4976761;28;20022;-86
2023/10/29 01:14:01;;;;;;;2.70;0.63;;;;;;;14.08;100.00;98779.31;4949986;28;20030;-87
2023/10/29 01:16:28;;;;;;;1.80;0.68;;;;;;;14.20;100.00;98782.38;4975993;28;20118;-87
2023/10/29 01:18:55;;;;;;;4.05;0.88;;;;;;;14.16;100.00;98776.44;4968864;28;20030;-87
2023/10/29 01:21:26;;;;;;;2.42;0.73;;;;;;;14.24;100.00;98778.22;4974320;28;20105;-87
2023/10/29 01:23:51;;;;;;;8.80;0.80;;;;;;;14.20;100.00;98775.00;4972194;28;20027;-87
2023/10/29 01:26:17;;;;;;;5.03;0.95;;;;;;;14.28;100.00;98761.13;4978955;28;20130;-87
2023/10/29 01:28:43;;;;;;;2.55;1.50;;;;;;;14.21;100.00;98749.16;4965445;28;20057;-86
2023/10/29 01:31:09;;;;;;;5.03;0.80;;;;;;;14.21;100.00;98751.06;4992001;28;20058;-85
2023/10/29 01:33:35;;;;;;;2.00;0.80;;;;;;;14.04;100.00;98736.75;4983311;28;20095;-86
2023/10/29 01:36:01;;;;;;;3.15;0.80;;;;;;;14.13;100.00;98769.44;4974759;28;20026;-86
2023/10/29 01:38:26;;;;;;;3.50;0.70;;;;;;;14.05;100.00;98764.06;4978542;28;20511;-86
2023/10/29 01:40:51;;;;;;;0.93;0.60;;;;;;;14.06;100.00;98785.00;4978425;28;20022;-86
2023/10/29 01:43:17;;;;;;;2.50;0.70;;;;;;;13.98;100.00;98761.22;4976986;28;20034;-86
2023/10/29 01:45:43;;;;;;;1.80;0.70;;;;;;;13.92;100.00;98761.16;4976144;28;20038;-86
2023/10/29 01:48:10;;;;;;;4.97;0.90;;;;;;;13.88;100.00;98755.19;4994287;28;20044;-86
2023/10/29 01:50:37;;;;;;;3.42;1.58;;;;;;;13.84;100.00;98740.13;4976579;28;20037;-86
2023/10/29 01:53:03;;;;;;;8.18;1.05;;;;;;;13.83;100.00;98737.59;4977096;28;20423;-86
2023/10/29 01:55:28;;;;;;;5.05;0.77;;;;;;;13.80;100.00;98725.06;4962381;28;20476;-87
2023/10/29 01:57:53;;;;;;;3.75;1.02;;;;;;;13.82;100.00;98711.94;4978425;28;20049;-86
2023/10/29 02:00:20;;;;;;;2.30;0.75;;;;;;;13.79;100.00;98728.88;4962709;28;20025;-86
2023/10/29 02:02:47;;;;;;;1.73;0.80;;;;;;;13.73;100.00;98719.47;4966346;28;20042;-86
2023/10/29 02:05:13;;;;;;;2.67;0.60;;;;;;;13.82;100.00;98711.94;4978233;28;20072;-85
2023/10/29 02:07:39;;;;;;;2.17;0.60;;;;;;;13.77;100.00;98718.06;4962489;28;20030;-86
2023/10/29 02:10:05;;;;;;;4.40;1.83;;;;;;;13.78;100.00;98714.25;4978730;28;20396;-86
2023/10/29 02:12:31;;;;;;;1.25;0.63;;;;;;;13.75;100.00;98725.63;4994217;28;20061;-86
2023/10/29 02:14:56;;;;;;;2.50;0.60;;;;;;;13.79;100.00;98715.97;4962543;28;20491;-86
2023/10/29 02:17:24;;;;;;;1.85;0.93;;;;;;;13.83;100.00;98740.34;4965186;28;20423;-86
2023/10/29 02:19:54;;;;;;;2.72;0.68;;;;;;;13.77;100.00;98739.19;5011438;28;20029;-86
2023/10/29 02:22:19;;;;;;;4.32;0.73;;;;;;;13.77;100.00;98731.81;4994700;28;20039;-86
2023/10/29 02:24:45;;;;;;;6.43;0.80;;;;;;;13.71;100.00;98740.00;4977518;28;20120;-86
2023/10/29 02:27:12;;;;;;;0.80;0.68;;;;;;;13.78;100.00;98738.16;4961657;28;20034;-86
2023/10/29 02:29:37;;;;;;;1.60;0.70;;;;;;;13.76;100.00;98740.25;4978169;28;20029;-86
2023/10/29 02:32:03;;;;;;;1.45;0.60;;;;;;;13.78;100.00;98738.16;4975839;28;20124;-86
2023/10/29 02:34:28;;;;;;;1.67;0.60;;;;;;;13.82;100.00;98730.38;4978420;28;20037;-86
2023/10/29 02:36:53;;;;;;;2.88;0.82;;;;;;;13.81;100.00;98743.28;4994725;28;20056;-86
2023/10/29 02:39:19;;;;;;;0.75;0.60;;;;;;;13.90;100.00;98735.75;4994693;28;20041;-86
2023/10/29 02:41:44;;;;;;;0.93;0.60;;;;;;;13.93;100.00;98746.34;4978544;28;20026;-86
2023/10/29 02:44:10;;;;;;;0.75;0.50;;;;;;;13.99;100.00;98726.31;4977500;28;20042;-86
2023/10/29 02:46:37;;;;;;;1.85;0.60;;;;;;;13.96;100.00;98741.31;4978072;28;20042;-86
2023/10/29 02:49:02;;;;;;;4.70;0.70;;;;;;;13.93;100.00;98735.34;4965601;28;20409;-86
2023/10/29 02:51:28;;;;;;;4.90;0.70;;;;;;;13.96;100.00;98744.06;4977555;28;20121;-87
2023/10/29 02:53:55;;;;;;;1.65;0.68;;;;;;;14.02;100.00;98736.06;4976552;28;20120;-86
2023/10/29 02:56:20;;;;;;;5.35;0.60;;;;;;;14.14;100.00;98737.25;4992915;28;20114;-87
2023/10/29 02:58:46;;;;;;;1.98;0.80;;;;;;;14.12;100.00;98733.84;4977110;28;20117;-86
2023/10/29 03:01:15;;;;;;;6.88;0.60;;;;;;;14.12;100.00;98737.44;4962087;28;20033;-87
2023/10/29 03:03:41;;;;;;;1.42;0.50;;;;;;;14.16;100.00;98726.91;4992255;28;20022;-87
2023/10/29 03:06:08;;;;;;;0.77;0.52;;;;;;;14.10;100.00;98738.69;4994186;28;20176;-86
2023/10/29 03:08:34;;;;;;;4.15;0.55;;;;;;;14.12;100.00;98734.69;4974728;28;20030;-87
2023/10/29 03:11:00;;;;;;;2.92;0.50;;;;;;;14.18;100.00;98733.03;4977408;28;20038;-87
2023/10/29 03:13:25;;;;;;;3.15;0.63;;;;;;;14.13;100.00;98719.91;4973636;28;20040;-86
2023/10/29 03:15:52;;;;;;;5.78;0.50;;;;;;;14.17;100.00;98734.13;4989639;28;20487;-87
2023/10/29 03:18:18;;;;;;;2.85;0.60;;;;;;;14.23;100.00;98738.84;4962377;28;20022;-87
2023/10/29 03:20:43;;;;;;;1.80;0.52;;;;;;;14.21;100.00;98742.81;5011006;28;20506;-87
2023/10/29 03:23:09;;;;;;;1.88;0.60;;;;;;;14.20;100.00;98744.72;4986518;28;20435;-87
2023/10/29 03:25:34;;;;;;;3.08;0.60;;;;;;;14.18;100.00;98733.03;4968790;28;20491;-87
2023/10/29 03:28:00;;;;;;;8.07;1.23;;;;;;;14.21;100.00;98740.91;4994255;28;20030;-86
2023/10/29 03:30:26;;;;;;;1.95;0.63;;;;;;;14.20;100.00;98735.59;4994043;28;20038;-85
2023/10/29 03:32:52;;;;;;;0.85;0.65;;;;;;;14.21;100.00;98731.81;5011278;28;20050;-87
2023/10/29 03:35:18;;;;;;;2.28;0.85;;;;;;;14.16;100.00;98730.50;4987046;28;20084;-86
2023/10/29 03:37:43;;;;;;;1.83;0.60;;;;;;;14.13;100.00;98730.91;4977091;28;20620;-86
2023/10/29 03:40:09;;;;;;;1.23;0.68;;;;;;;14.10;100.00;98733.19;4973289;28;20087;-86
2023/10/29 03:42:35;;;;;;;2.45;0.70;;;;;;;14.11;100.00;98743.16;4977519;28;20128;-86
2023/10/29 03:45:00;;;;;;;2.33;0.60;;;;;;;14.06;100.00;98738.22;4992722;28;20030;-86
2023/10/29 03:47:27;;;;;;;5.38;0.68;;;;;;;14.06;100.00;98731.88;4993145;28;20034;-86
2023/10/29 03:49:53;;;;;;;2.80;0.90;;;;;;;14.04;100.00;98732.09;4992643;28;20096;-89
2023/10/29 03:52:24;;;;;;;3.03;0.60;;;;;;;14.04;100.00;98742.25;4962921;28;20030;-88
2023/10/29 03:54:50;;;;;;;4.75;0.60;;;;;;;14.04;100.00;98732.09;4980046;28;20065;-89
2023/10/29 03:57:15;;;;;;;0.82;0.50;;;;;;;14.07;100.00;98726.19;4979616;28;20443;-89
2023/10/29 03:59:41;;;;;;;3.05;0.73;;;;;;;14.04;100.00;98740.34;4963602;28;20475;-88
2023/10/29 04:02:06;;;;;;;5.03;0.60;;;;;;;14.03;100.00;98757.03;4962740;28;20172;-88
2023/10/29 04:04:33;;;;;;;2.28;0.70;;;;;;;13.92;100.00;98740.00;4997744;28;20034;-87
2023/10/29 04:06:58;;;;;;;10.82;0.70;;;;;;;13.90;100.00;98746.75;4998179;28;20396;-89
2023/10/29 04:09:24;;;;;;;3.60;0.90;;;;;;;13.84;100.00;98755.75;4980592;28;20030;-88
2023/10/29 04:11:49;;;;;;;4.32;0.90;;;;;;;13.89;100.00;98756.91;4982579;28;20038;-88
2023/10/29 04:14:15;;;;;;;4.55;0.77;;;;;;;13.79;100.00;98759.97;4966719;28;20084;-89
2023/10/29 04:16:40;;;;;;;0.75;0.63;;;;;;;13.85;100.00;98765.75;4995850;28;20503;-89
2023/10/29 04:19:05;;;;;;;2.65;0.93;;;;;;;13.84;100.00;98758.53;5016291;28;20113;-88
2023/10/29 04:21:31;;;;;;;2.38;0.60;;;;;;;13.89;100.00;98756.91;4970306;28;20126;-87
2023/10/29 04:23:58;;;;;;;2.08;0.60;;;;;;;13.90;100.00;98758.59;5000800;28;20034;-88
2023/10/29 04:26:23;;;;;;;3.42;0.63;;;;;;;13.86;100.00;98756.44;4981491;28;20053;-88
2023/10/29 04:28:49;;;;;;;3.67;0.70;;;;;;;13.88;100.00;98757.09;4998482;28;20484;-88
2023/10/29 04:31:15;;;;;;;1.50;0.50;;;;;;;13.78;100.00;98761.00;4981569;28;20153;-87
2023/10/29 04:33:40;;;;;;;2.45;0.70;;;;;;;13.78;100.00;98752.75;4981729;28;20084;-87
2023/10/29 04:36:06;;;;;;;3.40;0.77;;;;;;;13.78;100.00;98751.91;4963903;28;20488;-87
2023/10/29 04:38:35;;;;;;;1.77;0.70;;;;;;;13.78;100.00;98758.25;4965728;28;20096;-89
2023/10/29 04:41:00;;;;;;;7.25;0.70;;;;;;;13.75;100.00;98749.53;4998649;28;20223;-88
2023/10/29 04:43:26;;;;;;;3.08;0.60;;;;;;;13.80;100.00;98758.06;4979617;28;20069;-89
2023/10/29 04:45:51;;;;;;;2.05;0.63;;;;;;;13.72;100.00;98767.28;4964890;28;20033;-88
2023/10/29 04:48:17;;;;;;;3.45;0.80;;;;;;;13.75;100.00;98774.31;4982037;28;20116;-89
2023/10/29 04:50:43;;;;;;;5.80;0.63;;;;;;;13.87;100.00;98770.00;4982412;28;20041;-88
2023/10/29 04:53:08;;;;;;;4.57;0.75;;;;;;;13.88;100.00;98773.59;4982254;28;20037;-88
2023/10/29 04:55:33;;;;;;;3.13;0.60;;;;;;;13.81;100.00;98781.78;4982351;28;20041;-89
2023/10/29 04:57:59;;;;;;;6.13;0.60;;;;;;;13.81;100.00;98776.28;4981865;28;20116;-88
2023/10/29 05:00:24;;;;;;;4.13;0.73;;;;;;;13.84;100.00;98786.91;4981866;28;20034;-88
2023/10/29 05:02:51;;;;;;;7.22;0.70;;;;;;;13.78;100.00;98785.75;4982064;28;20111;-89
2023/10/29 05:05:17;;;;;;;2.67;0.63;;;;;;;13.83;100.00;98778.84;5015608;28;20076;-89
2023/10/29 05:07:44;;;;;;;4.38;0.70;;;;;;;13.85;100.00;98772.06;4996659;28;20057;-89
2023/10/29 05:10:11;;;;;;;2.35;0.60;;;;;;;13.86;100.00;98771.03;5015513;28;20093;-89
2023/10/29 05:12:37;;;;;;;2.55;1.10;;;;;;;13.91;100.00;98781.47;4962946;28;20108;-88
2023/10/29 05:15:02;;;;;;;4.60;1.10;;;;;;;14.03;100.00;98788.16;4975145;28;20029;-88
2023/10/29 05:17:29;;;;;;;4.70;1.10;;;;;;;14.09;100.00;98773.63;4982112;28;20065;-89
2023/10/29 05:19:55;;;;;;;4.00;0.65;;;;;;;14.11;100.00;98790.78;4966941;28;20897;-88
2023/10/29 05:22:21;;;;;;;3.80;0.60;;;;;;;14.13;100.00;98769.44;4980251;28;20061;-88
2023/10/29 05:24:47;;;;;;;7.32;0.80;;;;;;;14.14;100.00;98767.53;5015361;28;20095;-89
2023/10/29 05:27:12;;;;;;;9.65;0.70;;;;;;;14.22;100.00;98772.91;4997767;28;20029;-88
2023/10/29 05:29:39;;;;;;;5.68;0.70;;;;;;;14.25;100.00;98760.63;4994922;28;20389;-88
2023/10/29 05:32:05;;;;;;;5.45;0.93;;;;;;;14.22;100.00;98761.91;4977890;28;20050;-88
2023/10/29 05:34:31;;;;;;;16.33;1.00;;;;;;;14.23;100.00;98758.09;4980867;28;20503;-88
2023/10/29 05:36:56;;;;;;;7.18;0.80;;;;;;;14.22;100.00;98759.13;4965871;28;20030;-87
2023/10/29 05:39:21;;;;;;;4.80;0.68;;;;;;;14.17;100.00;98778.16;4963573;28;20038;-87
2023/10/29 05:41:47;;;;;;;6.00;1.13;;;;;;;14.24;100.00;98798.31;4978103;28;20031;-88
2023/10/29 05:44:14;;;;;;;5.10;0.82;;;;;;;14.19;100.00;98797.22;4997337;28;20041;-89
2023/10/29 05:46:39;;;;;;;6.30;0.68;;;;;;;14.18;100.00;98792.75;4981648;28;20038;-89
2023/10/29 05:49:05;;;;;;;3.42;0.60;;;;;;;14.07;100.00;98797.72;4977348;28;20037;-88
2023/10/29 05:51:30;;;;;;;5.80;0.80;;;;;;;14.02;100.00;98793.84;4972401;28;20040;-89
2023/10/29 05:53:55;;;;;;;6.47;0.70;;;;;;;13.95;100.00;98807.53;4973367;28;20031;-88
2023/10/29 05:56:21;;;;;;;5.82;0.70;;;;;;;13.97;100.00;98814.56;4962603;28;20034;-89
2023/10/29 05:58:47;;;;;;;3.22;0.63;;;;;;;14.03;100.00;98823.91;4996900;28;20026;-88
2023/10/29 06:01:14;;;;;;;6.82;0.60;;;;;;;13.90;100.00;98821.03;4977090;28;20134;-88
2023/10/29 06:03:39;;;;;;;6.15;0.65;;;;;;;13.90;100.00;98830.13;4988770;28;20128;-86
2023/10/29 06:06:06;;;;;;;10.50;0.68;;;;;;;14.04;100.00;98841.31;4976820;28;20034;-87
2023/10/29 06:08:31;;;;;;;3.17;0.60;;;;;;;13.98;100.00;98834.66;4990177;28;20053;-88
2023/10/29 06:10:57;;;;;;;5.63;0.65;;;;;;;13.98;100.00;98846.50;4966352;28;20488;-87
2023/10/29 06:13:22;;;;;;;4.95;0.95;;;;;;;14.03;100.00;98859.69;4993772;28;20030;-88
2023/10/29 06:15:48;;;;;;;7.18;0.77;;;;;;;13.89;100.00;98874.34;4979129;28;20049;-88
2023/10/29 06:18:16;;;;;;;8.65;0.85;;;;;;;13.86;100.00;98880.25;4980109;28;20129;-87
2023/10/29 06:20:42;;;;;;;5.18;0.80;;;;;;;13.82;100.00;98890.75;4980049;28;20025;-89
2023/10/29 06:23:08;;;;;;;5.00;0.75;;;;;;;13.70;100.00;98887.63;4995736;28;20038;-87
2023/10/29 06:25:34;;;;;;;8.18;0.70;;;;;;;13.72;100.00;98888.28;4994909;28;20026;-88
2023/10/29 06:28:00;;;;;;;9.90;0.90;;;;;;;13.85;100.00;98903.28;4977732;28;20476;-87
2023/10/29 06:30:28;;;;;;;3.92;0.70;;;;;;;13.80;100.00;98909.34;4991243;28;20038;-89
2023/10/29 06:32:55;;;;;;;9.95;1.30;;;;;;;13.78;100.00;98915.03;4978289;28;20062;-88
2023/10/29 06:35:20;;;;;;;13.23;1.15;;;;;;;13.73;100.00;98913.91;4979876;28;20072;-90
2023/10/29 06:37:46;;;;;;;11.07;1.80;;;;;;;13.66;100.00;98921.19;4961571;28;20069;-87
2023/10/29 06:40:12;;;;;;;7.80;1.20;;;;;;;13.68;100.00;98916.38;4960445;28;20025;-89
2023/10/29 06:42:38;;;;;;;7.10;1.15;;;;;;;13.63;100.00;98932.59;4962057;28;20057;-91
2023/10/29 06:45:05;;;;;;;7.00;0.98;;;;;;;13.65;100.00;98936.00;4979278;28;20083;-87
2023/10/29 06:47:31;;;;;;;10.55;0.82;;;;;;;13.63;100.00;98940.84;4972728;28;20041;-89
2023/10/29 06:49:57;;;;;;;5.60;0.80;;;;;;;13.57;100.00;98924.03;5012010;28;20026;-89
2023/10/29 06:52:23;;;;;;;7.68;0.70;;;;;;;13.55;100.00;98939.03;4975630;28;20041;-89
2023/10/29 06:54:49;;;;;;;13.55;0.88;;;;;;;13.51;100.00;98933.06;4978723;28;20037;-89
2023/10/29 06:57:14;;;;;;;5.30;1.00;;;;;;;13.54;100.00;98940.94;4978762;28;20026;-87
2023/10/29 06:59:40;;;;;;;11.75;1.15;;;;;;;13.54;100.00;98946.44;4968510;28;20034;-88
2023/10/29 07:02:06;;;;;;;3.10;0.60;;;;;;;13.53;100.00;98941.13;4994579;28;20044;-87
2023/10/29 07:04:33;;;;;;;6.03;0.65;;;;;;;13.61;100.00;98941.03;4961829;28;20121;-88
2023/10/29 07:06:58;;;;;;;9.00;0.80;;;;;;;13.56;100.00;98948.97;4993553;28;20040;-88
2023/10/29 07:09:24;;;;;;;18.38;1.58;;;;;;;13.46;100.00;98954.75;4997458;28;20019;-90
2023/10/29 07:11:51;;;;;;;10.15;0.93;;;;;;;13.46;100.00;98960.25;4978072;28;20037;-88
2023/10/29 07:14:17;;;;;;;9.10;1.15;;;;;;;13.47;100.00;98967.47;4993477;28;20018;-88
2023/10/29 07:16:44;;;;;;;14.88;1.17;;;;;;;13.39;100.00;98979.38;4994287;28;20029;-90
2023/10/29 07:19:13;;;;;;;8.85;0.80;;;;;;;13.35;100.00;98985.47;4976472;28;20014;-89
2023/10/29 07:21:39;;;;;;;12.13;1.05;;;;;;;13.37;100.00;98986.97;4983722;28;20041;-88
2023/10/29 07:24:06;;;;;;;12.52;1.55;;;;;;;13.56;100.00;98987.47;5003007;28;20990;-90
2023/10/29 07:26:33;;;;;;;13.68;1.25;;;;;;;13.63;100.00;98991.19;4951764;28;20037;-88
2023/10/29 07:28:59;;;;;;;8.48;1.08;;;;;;;13.63;100.00;98976.59;4980965;28;20030;-89
2023/10/29 07:31:25;;;;;;;9.88;1.10;;;;;;;13.81;100.00;98982.59;4974317;28;20407;-88
2023/10/29 07:33:51;;;;;;;11.35;1.10;;;;;;;13.83;100.00;98983.25;4948047;28;20670;-88
2023/10/29 07:36:19;;;;;;;6.05;0.90;;;;;;;13.87;100.00;98992.84;4980489;28;20035;-87
2023/10/29 07:38:44;;;;;;;11.27;1.05;;;;;;;13.95;100.00;99002.88;4966717;28;20030;-88
2023/10/29 07:41:10;;;;;;;8.23;1.98;;;;;;;13.95;100.00;99014.75;4990246;28;20026;-87
2023/10/29 07:43:35;;;;;;;11.63;1.40;;;;;;;13.81;100.00;99015.59;4992979;28;20397;-88
2023/10/29 07:46:04;;;;;;;9.75;0.98;;;;;;;13.64;100.00;99019.56;4989468;28;20038;-87
2023/10/29 07:48:29;;;;;;;12.15;1.40;;;;;;;13.62;100.00;99013.38;4974381;28;20173;-89
2023/10/29 07:50:55;;;;;;;10.52;0.80;;;;;;;13.64;100.00;99020.41;4993332;28;20113;-90
2023/10/29 07:53:21;;;;;;;12.02;1.10;;;;;;;13.58;100.00;99032.16;4978212;28;20035;-90
2023/10/29 07:55:46;;;;;;;8.18;0.90;;;;;;;13.97;100.00;99042.09;4974133;28;20038;-88
2023/10/29 07:58:12;;;;;;;7.78;1.05;;;;;;;13.98;100.00;99041.03;4957489;28;20035;-89
2023/10/29 08:00:37;;;;;;;5.68;0.90;;;;;;;13.95;100.00;99053.28;4984690;28;20485;-88
2023/10/29 08:03:04;;;;;;;7.45;1.00;;;;;;;13.93;100.00;99047.09;4989328;28;20038;-87
2023/10/29 08:05:29;;;;;;;8.77;0.90;;;;;;;13.91;100.00;99059.34;4987151;28;20034;-87
2023/10/29 08:07:54;;;;;;;11.48;1.15;;;;;;;13.83;100.00;99060.28;4973222;28;20113;-88
2023/10/29 08:10:20;;;;;;;22.33;1.58;;;;;;;13.76;100.00;99065.66;4977756;28;20114;-90
2023/10/29 08:12:45;;;;;;;11.65;1.38;;;;;;;13.84;100.00;99067.50;4962046;28;20042;-90
2023/10/29 08:15:12;;;;;;;8.65;1.20;;;;;;;14.03;100.00;99070.75;4979466;28;20392;-93
2023/10/29 08:17:37;;;;;;;10.48;1.17;;;;;;;14.10;100.00;99066.19;4993865;28;20119;-91
2023/10/29 08:20:03;;;;;;;5.57;0.90;;;;;;;14.32;100.00;99073.50;4988842;28;20046;-93
2023/10/29 08:22:29;;;;;;;12.98;1.42;;;;;;;14.30;100.00;99074.75;4995538;28;20053;-94
2023/10/29 08:24:55;;;;;;;12.43;1.20;;;;;;;14.66;100.00;99069.34;4996449;28;20068;-92
2023/10/29 08:27:21;;;;;;;6.18;1.52;;;;;;;14.59;100.00;99079.41;4995368;28;20034;-93
2023/10/29 08:29:48;;;;;;;9.27;1.20;;;;;;;14.68;100.00;99077.41;4959963;28;20413;-86
2023/10/29 08:32:13;;;;;;;10.95;1.52;;;;;;;14.61;100.00;99079.22;4975129;28;20108;-86
2023/10/29 08:34:39;;;;;;;5.53;1.02;;;;;;;14.63;100.00;99075.22;4990731;28;20045;-85
2023/10/29 08:37:05;;;;;;;11.48;1.50;;;;;;;14.81;100.00;99083.09;4970223;28;20030;-86
2023/10/29 08:39:31;;;;;;;10.13;1.23;;;;;;;14.74;100.00;99071.13;4990776;28;20041;-85
2023/10/29 08:41:57;;;;;;;7.53;0.90;;;;;;;14.74;100.00;99089.56;4990005;28;20041;-86
2023/10/29 08:44:22;;;;;;;11.98;2.47;;;;;;;14.92;100.00;99092.78;4988656;28;20780;-85
2023/10/29 08:46:49;;;;;;;11.90;1.15;;;;;;;14.88;100.00;99097.78;4990237;28;20042;-85
2023/10/29 08:49:14;;;;;;;8.30;1.08;;;;;;;14.82;100.00;99092.19;4990303;28;20455;-85
2023/10/29 08:51:40;;;;;;;7.47;1.48;;;;;;;15.02;100.00;99087.78;4990884;28;20030;-85
2023/10/29 08:54:06;;;;;;;7.80;1.10;;;;;;;14.83;100.00;99105.78;4973290;28;20022;-86
2023/10/29 08:56:35;;;;;;;15.18;1.15;;;;;;;15.08;100.00;99119.22;4955961;28;20061;-86
2023/10/29 08:59:05;;;;;;;14.30;1.10;;;;;;;15.18;100.00;99125.31;4972673;28;21878;-87
2023/10/29 09:01:33;;;;;;;8.30;1.00;;;;;;;15.33;100.00;99133.53;4991773;28;20049;-86
2023/10/29 09:04:00;;;;;;;9.52;1.75;;;;;;;15.37;100.00;99150.53;4973022;28;20492;-87
2023/10/29 09:06:25;;;;;;;11.77;1.35;;;;;;;15.31;100.00;99154.06;4958663;28;20022;-87
2023/10/29 09:08:51;;;;;;;9.55;1.23;;;;;;;15.22;100.00;99143.16;4988531;28;20041;-86
2023/10/29 09:11:17;;;;;;;5.43;0.93;;;;;;;15.41;100.00;99157.34;4990577;28;20165;-86
2023/10/29 09:13:43;;;;;;;7.85;1.10;;;;;;;15.27;100.00;99150.00;4973602;28;20435;-86
2023/10/29 09:16:08;;;;;;;13.65;1.20;;;;;;;15.51;100.00;99157.03;4990487;28;20026;-85
2023/10/29 09:18:34;;;;;;;8.23;1.00;;;;;;;15.14;100.00;99145.19;4973672;28;20026;-87
2023/10/29 09:21:00;;;;;;;5.30;1.02;;;;;;;14.93;100.00;99149.56;4972938;28;20531;-86
2023/10/29 09:23:27;;;;;;;9.52;1.13;;;;;;;14.95;100.00;99149.38;4988057;28;20032;-85
2023/10/29 09:25:52;;;;;;;8.52;1.00;;;;;;;14.96;100.00;99153.88;4972050;28;20038;-84
2023/10/29 09:28:18;;;;;;;8.70;0.95;;;;;;;14.89;100.00;99162.03;4973749;28;20042;-85
2023/10/29 09:30:44;;;;;;;7.13;1.15;;;;;;;14.81;100.00;99140.94;4974124;28;20034;-85
2023/10/29 09:33:12;;;;;;;12.13;1.10;;;;;;;14.94;100.00;99165.06;5005862;28;20046;-87
2023/10/29 09:35:39;;;;;;;11.40;1.30;;;;;;;14.87;100.00;99158.59;4989594;28;20030;-86
2023/10/29 09:38:04;;;;;;;4.80;0.80;;;;;;;15.23;100.00;99158.66;4986797;28;20191;-88
2023/10/29 09:40:31;;;;;;;8.45;1.33;;;;;;;15.32;100.00;99175.09;4989747;28;20496;-87
2023/10/29 09:43:04;;;;;;;15.07;1.27;;;;;;;15.22;100.00;99161.59;4990524;28;20054;-90
2023/10/29 09:45:32;;;;;;;6.63;0.90;;;;;;;15.15;100.00;99153.25;4986846;28;20052;-88
2023/10/29 09:47:58;;;;;;;11.50;1.30;;;;;;;15.38;100.00;99160.50;4972234;28;20039;-89
2023/10/29 09:50:24;;;;;;;9.55;1.58;;;;;;;15.16;100.00;99162.38;4991093;28;20038;-87
2023/10/29 09:52:52;;;;;;;10.73;1.00;;;;;;;15.24;100.00;99156.75;4990267;28;20409;-87
2023/10/29 09:55:20;;;;;;;5.63;0.85;;;;;;;15.17;100.00;99153.91;4988491;28;20018;-85
2023/10/29 09:57:49;;;;;;;10.13;1.00;;;;;;;15.26;100.00;99157.41;4990293;28;20116;-85
2023/10/29 10:00:16;;;;;;;8.27;1.17;;;;;;;15.29;100.00;99146.00;4985772;28;20150;-85
2023/10/29 10:02:57;;;;;;;6.38;1.00;;;;;;;15.34;100.00;99128.88;4989263;28;20114;-85
2023/10/29 10:05:25;;;;;;;8.55;1.35;;;;;;;15.24;100.00;99113.47;4987456;28;20025;-86
2023/10/29 10:07:55;;;;;;;8.55;1.00;;;;;;;15.43;100.00;99124.94;4988922;28;20050;-87
2023/10/29 10:10:21;;;;;;;9.45;1.33;;;;;;;15.15;100.00;99124.81;4985971;28;20057;-87
2023/10/29 10:12:51;;;;;;;12.60;1.63;;;;;;;15.08;100.00;99146.78;4973029;28;20038;-86
2023/10/29 10:15:18;;;;;;;11.45;1.15;;;;;;;14.88;100.00;99136.38;4984824;28;20034;-86
2023/10/29 10:18:11;;;;;;;13.23;1.13;;;;;;;14.81;100.00;99138.19;4958739;28;20028;-85
2023/10/29 10:20:37;;;;;;;8.38;1.00;;;;;;;14.74;100.00;99134.50;4987330;28;20054;-85
2023/10/29 10:23:11;;;;;;;13.48;1.23;;;;;;;14.65;100.00;99127.38;4974097;28;20038;-85
2023/10/29 10:25:37;;;;;;;12.38;1.02;;;;;;;14.57;100.00;99121.94;4988154;28;20030;-85
2023/10/29 10:28:04;;;;;;;9.38;1.33;;;;;;;14.70;100.00;99128.50;4971826;28;20037;-85
2023/10/29 10:30:33;;;;;;;6.65;1.13;;;;;;;14.66;100.00;99135.44;4985498;28;20058;-85
2023/10/29 10:33:12;;;;;;;15.95;1.35;;;;;;;14.71;100.00;99145.91;5007796;28;20523;-86
2023/10/29 10:35:45;;;;;;;11.65;2.00;;;;;;;14.75;100.00;99141.72;4988520;28;20037;-86
2023/10/29 10:38:12;;;;;;;10.73;1.40;;;;;;;14.62;100.00;99145.13;4999542;28;20029;-86
2023/10/29 10:40:37;;;;;;;12.25;1.55;;;;;;;14.56;100.00;99134.88;4974279;28;20129;-86
2023/10/29 10:43:04;;;;;;;11.27;1.27;;;;;;;14.68;100.00;99138.03;4988835;28;20041;-86
2023/10/29 10:45:32;;;;;;;8.02;1.20;;;;;;;14.77;100.00;99145.13;4985840;28;20038;-86
2023/10/29 10:48:01;;;;;;;9.15;1.25;;;;;;;14.82;100.00;99126.13;4992133;28;20017;-86
2023/10/29 10:50:27;;;;;;;10.48;1.13;;;;;;;14.96;100.00;99127.16;4988954;28;20037;-87
2023/10/29 10:52:54;;;;;;;5.95;1.52;;;;;;;15.12;100.00;99142.63;4992497;28;20037;-87
2023/10/29 10:55:22;;;;;;;13.02;1.65;;;;;;;15.25;100.00;99148.28;4986710;28;20380;-87
2023/10/29 10:57:51;;;;;;;10.95;1.42;;;;;;;15.00;100.00;99150.53;4971629;28;20030;-88
2023/10/29 11:00:19;;;;;;;7.82;1.05;;;;;;;14.81;100.00;99160.22;4989403;28;20022;-87
2023/10/29 11:02:45;;;;;;;7.05;0.95;;;;;;;14.68;100.00;99171.06;4987677;28;20045;-88
2023/10/29 11:05:13;;;;;;;10.70;1.42;;;;;;;14.62;100.00;99178.19;4992261;28;20030;-87
2023/10/29 11:07:40;;;;;;;5.40;1.52;;;;;;;14.61;100.00;99184.75;4990103;28;20038;-88
2023/10/29 11:10:08;;;;;;;7.97;1.60;;;;;;;14.58;100.00;99185.09;4990054;28;20025;-88
2023/10/29 11:12:38;;;;;;;15.13;1.20;;;;;;;14.55;100.00;99187.38;4991228;28;20331;-88
2023/10/29 11:15:23;;;;;;;7.15;0.80;;;;;;;14.46;100.00;99168.19;4987775;28;20026;-89
2023/10/29 11:18:02;;;;;;;10.05;1.38;;;;;;;14.41;100.00;99172.53;4977847;28;20399;-89
2023/10/29 11:20:36;;;;;;;7.72;0.85;;;;;;;14.38;100.00;99171.03;4997893;28;20118;-89